Forever One — ZGEG7 — position and weather

sailwx.info

Track history (hours):
 
Tides and Currents Weather Stations Pressure Air Temp Water Temp Dewpoint Dewpoint Depression Visibility Wind Speed Wind Dir Waves Ship Positions

Forever One

Last reported at 2018-Jun-25 10:28 UTC. Time now 2018-Jun-25 14:15 UTC.
Position N 54°06' E 009°20'.

Length 54 m; draft 3 m.

Type: Pleasure craft. MMSI: 319072200.

Date/timePositionNaut miles runAvg speedWind from/ knotsBaromVisibWave heightAir tempDewpointWater temp
2018-Jun-25 10:28N 54°06' E 009°20'5 9.1
2018-Jun-25 09:56N 54°02' E 009°18'4 8.7
2018-Jun-25 09:30N 53°58' E 009°16'4 8.8
2018-Jun-25 09:00N 53°55' E 009°11'2 3.1
2018-Jun-25 08:30N 53°54' E 009°09'0 0.0
2018-Jun-25 08:00N 53°54' E 009°09'1 2.1
2018-Jun-25 07:30N 53°53' E 009°10'510.6
2018-Jun-25 07:00N 53°51' E 009°19'714.1
2018-Jun-25 06:30N 53°45' E 009°24'714.4
2018-Jun-25 06:00N 53°39' E 009°31'714.7
2018-Jun-25 05:30N 53°34' E 009°40'815.3
2018-Jun-25 05:00N 53°33' E 009°53'3 5.8
2018-Jun-25 04:24N 53°33' E 009°59'0 0.0
2018-Jun-25 03:59N 53°33' E 009°59'0 0.0
2018-Jun-25 03:30N 53°33' E 009°59'0 0.0
2018-Jun-25 02:56N 53°33' E 009°59'0 0.0
2018-Jun-25 02:26N 53°33' E 009°59'0 0.0
2018-Jun-25 01:57N 53°33' E 009°59'0 0.0
2018-Jun-25 01:28N 53°33' E 009°59'0 0.0
2018-Jun-25 00:59N 53°33' E 009°59'0 0.0
2018-Jun-25 00:28N 53°33' E 009°59'0 0.0
2018-Jun-24 23:58N 53°33' E 009°59'0 0.0
2018-Jun-24 23:29N 53°33' E 009°59'0 0.0
2018-Jun-24 22:57N 53°33' E 009°59'0 0.0
2018-Jun-24 22:24N 53°33' E 009°59'0 0.0
2018-Jun-24 22:00N 53°33' E 009°59'0 0.0
2018-Jun-24 21:30N 53°33' E 009°59'0 0.0
2018-Jun-24 21:00N 53°33' E 009°59'0 0.0
2018-Jun-24 20:26N 53°33' E 009°59'0 0.0
2018-Jun-24 19:53N 53°33' E 009°59'0 0.0
2018-Jun-24 19:30N 53°33' E 009°59'0 0.0
2018-Jun-24 18:59N 53°33' E 009°59'0 0.0
2018-Jun-24 18:28N 53°33' E 009°59'0 0.0
2018-Jun-24 18:00N 53°33' E 009°59'0 0.0
2018-Jun-24 17:28N 53°33' E 009°59'0 0.0
2018-Jun-24 16:59N 53°33' E 009°59'0 0.0
2018-Jun-24 16:29N 53°33' E 009°59'0 0.0
2018-Jun-24 16:01N 53°33' E 009°59'0 0.0
2018-Jun-24 15:31N 53°33' E 009°59'0 0.0
2018-Jun-24 15:00N 53°33' E 009°59'0 0.0
2018-Jun-24 14:30N 53°33' E 009°59'0 0.0
2018-Jun-24 13:57N 53°33' E 009°59'0 0.0
2018-Jun-24 13:24N 53°33' E 009°59'0 0.0
2018-Jun-24 13:00N 53°33' E 009°59'0 0.0
2018-Jun-24 12:27N 53°33' E 009°59'0 0.0
2018-Jun-24 11:58N 53°33' E 009°59'0 0.0
2018-Jun-24 11:30N 53°33' E 009°59'0 0.0
2018-Jun-24 10:59N 53°33' E 009°59'0 0.0
2018-Jun-24 10:30N 53°33' E 009°59'0 0.0
2018-Jun-24 09:54N 53°33' E 009°59'0 0.0
2018-Jun-24 09:28N 53°33' E 009°59'0 0.0
2018-Jun-24 08:59N 53°33' E 009°59'0 0.0
2018-Jun-24 08:25N 53°33' E 009°59'0 0.0
2018-Jun-24 07:59N 53°33' E 009°59'0 0.0
2018-Jun-24 07:29N 53°33' E 009°59'0 0.0
2018-Jun-24 06:58N 53°33' E 009°59'0 0.0
2018-Jun-24 06:29N 53°33' E 009°59'0 0.0
2018-Jun-24 05:59N 53°33' E 009°59'0 0.0
2018-Jun-24 05:30N 53°33' E 009°59'0 0.0
2018-Jun-24 05:00N 53°33' E 009°59'0 0.0
2018-Jun-24 04:23N 53°33' E 009°59'0 0.0
2018-Jun-24 04:00N 53°33' E 009°59'0 0.0
2018-Jun-24 03:30N 53°33' E 009°59'0 0.0
2018-Jun-24 02:57N 53°33' E 009°59'0 0.0
2018-Jun-24 02:24N 53°33' E 009°59'0 0.0
2018-Jun-24 01:58N 53°33' E 009°59'0 0.0
2018-Jun-24 01:28N 53°33' E 009°59'0 0.0
2018-Jun-24 00:55N 53°33' E 009°59'0 0.0
2018-Jun-24 00:28N 53°33' E 009°59'0 0.0
2018-Jun-23 23:58N 53°33' E 009°59'0 0.0
2018-Jun-23 23:28N 53°33' E 009°59'0 0.0
2018-Jun-23 22:59N 53°33' E 009°59'0 0.0
2018-Jun-23 22:28N 53°33' E 009°59'0 0.0
2018-Jun-23 21:53N 53°33' E 009°59'0 0.0
2018-Jun-23 21:29N 53°33' E 009°59'0 0.0
2018-Jun-23 21:00N 53°33' E 009°59'0 0.0
2018-Jun-23 20:28N 53°33' E 009°59'0 0.0
2018-Jun-23 20:00N 53°33' E 009°59'0 0.0
2018-Jun-23 19:25N 53°33' E 009°59'0 0.0
2018-Jun-23 18:59N 53°33' E 009°59'0 0.0
2018-Jun-23 18:28N 53°33' E 009°59'0 0.0
2018-Jun-23 17:55N 53°33' E 009°59'0 0.0
2018-Jun-23 17:24N 53°33' E 009°59'0 0.0
2018-Jun-23 17:00N 53°33' E 009°59'0 0.0
2018-Jun-23 16:28N 53°33' E 009°59'0 0.0
2018-Jun-23 16:00N 53°33' E 009°59'0 0.0
2018-Jun-23 15:27N 53°33' E 009°59'0 0.0
2018-Jun-23 14:58N 53°33' E 009°59'0 0.0
2018-Jun-23 14:28N 53°33' E 009°59'0 0.0
2018-Jun-23 13:56N 53°33' E 009°59'0 0.0
2018-Jun-23 13:24N 53°33' E 009°59'0 0.0
2018-Jun-23 12:58N 53°33' E 009°59'0 0.0
2018-Jun-23 12:28N 53°33' E 009°59'0 0.0
2018-Jun-23 11:54N 53°33' E 009°59'0 0.0
2018-Jun-23 11:28N 53°33' E 009°59'0 0.0
2018-Jun-23 11:00N 53°33' E 009°59'0 0.0
2018-Jun-23 10:28N 53°33' E 009°59'0 0.0
2018-Jun-23 09:56N 53°33' E 009°59'0 0.0
2018-Jun-23 09:23N 53°33' E 009°59'0 0.0
2018-Jun-23 08:59N 53°33' E 009°59'0 0.0
2018-Jun-23 08:27N 53°33' E 009°59'0 0.0
2018-Jun-23 07:53N 53°33' E 009°59'0 0.0
2018-Jun-23 07:29N 53°33' E 009°59'0 0.0
2018-Jun-23 06:58N 53°33' E 009°59'0 0.0
2018-Jun-23 06:26N 53°33' E 009°59'0 0.0
2018-Jun-23 06:00N 53°33' E 009°59'0 0.0
2018-Jun-23 05:29N 53°33' E 009°59'0 0.0
2018-Jun-23 05:00N 53°33' E 009°59'0 0.0
2018-Jun-23 04:27N 53°33' E 009°59'0 0.0
2018-Jun-23 03:59N 53°33' E 009°59'0 0.0
2018-Jun-23 03:30N 53°33' E 009°59'0 0.0
2018-Jun-23 03:00N 53°33' E 009°59'0 0.0
2018-Jun-23 02:28N 53°33' E 009°59'0 0.0
2018-Jun-23 01:54N 53°33' E 009°59'0 0.0
2018-Jun-23 01:27N 53°33' E 009°59'0 0.0
2018-Jun-23 00:58N 53°33' E 009°59'0 0.0
2018-Jun-23 00:29N 53°33' E 009°59'0 0.0
2018-Jun-22 23:59N 53°33' E 009°59'0 0.0
2018-Jun-22 23:29N 53°33' E 009°59'0 0.0
2018-Jun-22 22:59N 53°33' E 009°59'0 0.0
2018-Jun-22 22:29N 53°33' E 009°59'0 0.0
2018-Jun-22 21:59N 53°33' E 009°59'0 0.0
2018-Jun-22 21:27N 53°33' E 009°59'0 0.0
2018-Jun-22 20:59N 53°33' E 009°59'0 0.0
2018-Jun-22 20:26N 53°33' E 009°59'0 0.0
2018-Jun-22 19:56N 53°33' E 009°59'0 0.0
2018-Jun-22 19:30N 53°33' E 009°59'0 0.0
2018-Jun-22 19:00N 53°33' E 009°59'0 0.0
2018-Jun-22 18:28N 53°33' E 009°59'0 0.0
2018-Jun-22 17:54N 53°33' E 009°59'0 0.0
2018-Jun-22 17:24N 53°33' E 009°59'0 0.0
2018-Jun-22 16:58N 53°33' E 009°59'0 0.0
2018-Jun-22 16:25N 53°33' E 009°59'0 0.0
2018-Jun-22 15:55N 53°33' E 009°59'0 0.0
2018-Jun-22 15:30N 53°33' E 009°59'0 0.0
2018-Jun-22 14:59N 53°33' E 009°59'0 0.0
2018-Jun-22 14:28N 53°33' E 009°59'0 0.0
2018-Jun-22 13:56N 53°33' E 009°59'0 0.0
2018-Jun-22 13:29N 53°33' E 009°59'0 0.0
2018-Jun-22 13:00N 53°33' E 009°59'0 0.0
2018-Jun-22 12:27N 53°33' E 009°59'0 0.0
2018-Jun-22 11:55N 53°33' E 009°59'0 0.0
2018-Jun-22 11:24N 53°33' E 009°59'0 0.0
2018-Jun-22 10:59N 53°33' E 009°59'0 0.0
2018-Jun-22 10:26N 53°33' E 009°59'0 0.0
2018-Jun-22 09:53N 53°33' E 009°59'0 0.0
2018-Jun-22 09:30N 53°33' E 009°59'0 0.0
2018-Jun-22 08:59N 53°33' E 009°59'0 0.0
2018-Jun-22 08:25N 53°33' E 009°59'0 0.0
2018-Jun-22 07:56N 53°33' E 009°59'0 0.0
2018-Jun-22 07:29N 53°33' E 009°59'0 0.0
2018-Jun-22 06:58N 53°33' E 009°59'0 0.0
2018-Jun-22 06:26N 53°33' E 009°59'0 0.0
2018-Jun-22 05:54N 53°33' E 009°59'0 0.0
2018-Jun-22 05:30N 53°33' E 009°59'0 0.0
2018-Jun-22 04:59N 53°33' E 009°59'0 0.0
2018-Jun-22 04:25N 53°33' E 009°59'0 0.0
2018-Jun-22 03:59N 53°33' E 009°59'0 0.0
2018-Jun-22 03:29N 53°33' E 009°59'0 0.0
2018-Jun-22 03:00N 53°33' E 009°59'0 0.0
2018-Jun-22 02:26N 53°33' E 009°59'0 0.0
2018-Jun-22 02:00N 53°33' E 009°59'0 0.0
2018-Jun-22 01:26N 53°33' E 009°59'0 0.0
2018-Jun-22 00:54N 53°33' E 009°59'0 0.0
2018-Jun-22 00:30N 53°33' E 009°59'0 0.0
2018-Jun-21 23:58N 53°33' E 009°59'0 0.0
2018-Jun-21 23:30N 53°33' E 009°59'0 0.0
2018-Jun-21 23:00N 53°33' E 009°59'0 0.0
2018-Jun-21 22:29N 53°33' E 009°59'0 0.0
2018-Jun-21 21:57N 53°33' E 009°59'0 0.0
2018-Jun-21 21:25N 53°33' E 009°59'0 0.0
2018-Jun-21 21:00N 53°33' E 009°59'3 6.4
2018-Jun-21 20:30N 53°32' E 009°53'714.6
2018-Jun-21 20:00N 53°34' E 009°41'815.4
2018-Jun-21 19:30N 53°39' E 009°31'815.9
2018-Jun-21 19:00N 53°46' E 009°24'816.3
2018-Jun-21 18:30N 53°52' E 009°16'816.5
2018-Jun-21 18:01N 53°52' E 009°02'916.2
2018-Jun-21 17:27N 53°51' E 008°47'12514.5
2018-Jun-21 08:48N 53°32' E 005°18'413.8
2018-Jun-21 08:29N 53°31' E 005°11'613.6
2018-Jun-21 08:00N 53°28' E 005°01'713.5
2018-Jun-21 07:28N 53°26' E 004°49'5611.2
2018-Jun-21 02:28N 52°31' E 004°26'511.6
2018-Jun-21 02:00N 52°28' E 004°33'1 2.7
2018-Jun-21 01:30N 52°28' E 004°36'3 5.5
2018-Jun-21 01:01N 52°28' E 004°40'5 9.6
2018-Jun-21 00:30N 52°26' E 004°47'4 9.0
2018-Jun-21 00:01N 52°23' E 004°54'1 2.0
2018-Jun-20 23:30N 52°23' E 004°55'0 0.4
2018-Jun-20 22:55N 52°22' E 004°55'0 0.0
2018-Jun-20 22:26N 52°22' E 004°55'0 0.0
2018-Jun-20 21:58N 52°22' E 004°55'0 0.0
2018-Jun-20 21:30N 52°22' E 004°55'0 0.0
2018-Jun-20 20:47N 52°22' E 004°55'0 0.0
2018-Jun-20 20:23N 52°22' E 004°55'0 0.0
2018-Jun-20 19:58N 52°22' E 004°55'0 0.0
2018-Jun-20 19:26N 52°22' E 004°55'0 0.0
2018-Jun-20 19:00N 52°22' E 004°55'0 0.0
2018-Jun-20 18:20N 52°22' E 004°55'0 0.0
2018-Jun-20 17:58N 52°22' E 004°55'0 0.0
2018-Jun-20 17:26N 52°22' E 004°55'0 0.0
2018-Jun-20 17:00N 52°22' E 004°55'0 0.0
2018-Jun-20 16:30N 52°22' E 004°55'0 0.0
2018-Jun-20 15:58N 52°22' E 004°55'0 0.0
2018-Jun-20 15:23N 52°22' E 004°55'0 0.0
2018-Jun-20 14:58N 52°22' E 004°55'0 0.0
2018-Jun-20 14:28N 52°22' E 004°55'0 0.0
2018-Jun-20 13:58N 52°22' E 004°55'0 0.0
2018-Jun-20 13:27N 52°22' E 004°55'0 0.0
2018-Jun-20 12:55N 52°22' E 004°55'0 0.0
2018-Jun-20 12:23N 52°22' E 004°55'0 0.0
2018-Jun-20 11:58N 52°22' E 004°55'0 0.0
2018-Jun-20 11:27N 52°22' E 004°55'0 0.0
2018-Jun-20 10:56N 52°22' E 004°55'0 0.0
2018-Jun-20 10:29N 52°22' E 004°55'0 0.0
2018-Jun-20 09:57N 52°22' E 004°55'0 0.0
2018-Jun-20 09:25N 52°22' E 004°55'0 0.0
2018-Jun-20 08:57N 52°22' E 004°55'0 0.0
2018-Jun-20 08:30N 52°22' E 004°55'0 0.0
2018-Jun-20 07:59N 52°22' E 004°55'0 0.0
2018-Jun-20 07:27N 52°22' E 004°55'0 0.0
2018-Jun-20 07:00N 52°22' E 004°55'0 0.0
2018-Jun-20 06:28N 52°22' E 004°55'0 0.0
2018-Jun-20 05:58N 52°22' E 004°55'0 0.0
2018-Jun-20 05:26N 52°22' E 004°55'0 0.0
2018-Jun-20 05:00N 52°22' E 004°55'0 0.0
2018-Jun-20 04:28N 52°22' E 004°55'0 0.0
2018-Jun-20 03:54N 52°22' E 004°55'0 0.0
2018-Jun-20 03:24N 52°22' E 004°55'0 0.0
2018-Jun-20 03:00N 52°22' E 004°55'0 0.0
2018-Jun-20 02:28N 52°22' E 004°55'0 0.0
2018-Jun-20 01:58N 52°22' E 004°55'0 0.0
2018-Jun-20 01:26N 52°22' E 004°55'0 0.0
2018-Jun-20 00:54N 52°22' E 004°55'0 0.0
2018-Jun-20 00:30N 52°22' E 004°55'0 0.0
2018-Jun-20 00:00N 52°22' E 004°55'0 0.0
2018-Jun-19 23:25N 52°22' E 004°55'0 0.0
2018-Jun-19 22:58N 52°22' E 004°55'0 0.0
2018-Jun-19 22:20N 52°22' E 004°55'0 0.0
2018-Jun-19 21:58N 52°22' E 004°55'0 0.0
2018-Jun-19 21:26N 52°22' E 004°55'0 0.0
2018-Jun-19 20:55N 52°22' E 004°55'0 0.0
2018-Jun-19 20:23N 52°22' E 004°55'0 0.0
2018-Jun-19 19:59N 52°22' E 004°55'0 0.0
2018-Jun-19 19:25N 52°22' E 004°55'0 0.0
2018-Jun-19 18:55N 52°22' E 004°55'0 0.0
2018-Jun-19 18:28N 52°22' E 004°55'0 0.0
2018-Jun-19 18:00N 52°22' E 004°55'0 0.0
2018-Jun-19 17:16N 52°22' E 004°55'0 0.0
2018-Jun-19 17:00N 52°22' E 004°55'0 0.0
2018-Jun-19 16:28N 52°22' E 004°55'0 0.0
2018-Jun-19 15:59N 52°22' E 004°55'0 0.0
2018-Jun-19 15:27N 52°22' E 004°55'0 0.0
2018-Jun-19 14:55N 52°22' E 004°55'0 0.0
2018-Jun-19 14:29N 52°22' E 004°55'0 0.0
2018-Jun-19 13:58N 52°22' E 004°55'0 0.0
2018-Jun-19 13:24N 52°22' E 004°55'0 0.0
2018-Jun-19 13:00N 52°22' E 004°55'0 0.0
2018-Jun-19 12:29N 52°22' E 004°55'0 0.0
2018-Jun-19 11:49N 52°22' E 004°55'0 0.0
2018-Jun-19 11:25N 52°22' E 004°55'0 0.0
2018-Jun-19 10:52N 52°22' E 004°55'0 0.0
2018-Jun-19 10:29N 52°22' E 004°55'0 0.0
2018-Jun-19 09:57N 52°22' E 004°55'0 0.0
2018-Jun-19 09:23N 52°22' E 004°55'0 0.0
2018-Jun-19 08:59N 52°22' E 004°55'0 0.0
2018-Jun-19 08:20N 52°22' E 004°55'0 0.0
2018-Jun-19 07:58N 52°22' E 004°55'0 0.0
2018-Jun-19 07:15N 52°22' E 004°55'0 0.0
2018-Jun-19 06:59N 52°22' E 004°55'0 0.0
2018-Jun-19 06:29N 52°22' E 004°55'0 0.0
2018-Jun-19 05:57N 52°22' E 004°55'0 0.0
2018-Jun-19 05:25N 52°22' E 004°55'0 0.0
2018-Jun-19 04:54N 52°22' E 004°55'0 0.0
2018-Jun-19 04:28N 52°22' E 004°55'0 0.0
2018-Jun-19 03:57N 52°22' E 004°55'0 0.0
2018-Jun-19 03:28N 52°22' E 004°55'0 0.0
2018-Jun-19 02:54N 52°22' E 004°55'0 0.0
2018-Jun-19 02:30N 52°22' E 004°55'0 0.0
2018-Jun-19 01:59N 52°22' E 004°55'0 0.0
2018-Jun-19 01:25N 52°22' E 004°55'0 0.0
2018-Jun-19 00:54N 52°22' E 004°55'0 0.0
2018-Jun-19 00:27N 52°22' E 004°55'0 0.7
2018-Jun-18 23:56N 52°23' E 004°55'0 0.2
2018-Jun-18 23:30N 52°23' E 004°55'0 0.2
2018-Jun-18 22:58N 52°23' E 004°55'0 0.0
2018-Jun-18 22:23N 52°23' E 004°55'0 0.0
2018-Jun-18 21:59N 52°23' E 004°55'0 0.0
2018-Jun-18 21:29N 52°23' E 004°55'0 0.0
2018-Jun-18 20:54N 52°23' E 004°55'0 0.0
2018-Jun-18 20:24N 52°23' E 004°55'0 0.0
2018-Jun-18 19:59N 52°23' E 004°55'0 0.0
2018-Jun-18 19:30N 52°23' E 004°55'0 0.0
2018-Jun-18 18:55N 52°23' E 004°55'0 0.0
2018-Jun-18 18:24N 52°23' E 004°55'0 0.0
2018-Jun-18 17:53N 52°23' E 004°55'0 0.0
2018-Jun-18 17:30N 52°23' E 004°55'0 0.0
2018-Jun-18 16:58N 52°23' E 004°55'0 0.0
2018-Jun-18 16:26N 52°23' E 004°55'0 0.0
2018-Jun-18 15:59N 52°23' E 004°55'0 0.0
2018-Jun-18 15:28N 52°23' E 004°55'0 0.0
2018-Jun-18 14:56N 52°23' E 004°55'0 0.0
2018-Jun-18 14:25N 52°23' E 004°55'0 0.0
2018-Jun-18 13:57N 52°23' E 004°55'0 0.0
2018-Jun-18 13:30N 52°23' E 004°55'0 0.0
2018-Jun-18 12:58N 52°23' E 004°55'0 0.0
2018-Jun-18 12:26N 52°23' E 004°55'0 0.0
2018-Jun-18 11:59N 52°23' E 004°55'0 0.0
2018-Jun-18 11:28N 52°23' E 004°55'0 0.0
2018-Jun-18 10:56N 52°23' E 004°55'0 0.0
2018-Jun-18 10:24N 52°23' E 004°55'0 0.0
2018-Jun-18 10:00N 52°23' E 004°55'0 0.0
2018-Jun-18 09:28N 52°23' E 004°55'0 0.0
2018-Jun-18 08:57N 52°23' E 004°55'0 0.0
2018-Jun-18 08:29N 52°23' E 004°55'0 0.0
2018-Jun-18 07:54N 52°23' E 004°55'0 0.0
2018-Jun-18 07:30N 52°23' E 004°55'0 0.0
2018-Jun-18 06:56N 52°23' E 004°55'0 0.0
2018-Jun-18 06:25N 52°23' E 004°55'0 0.0
2018-Jun-18 05:53N 52°23' E 004°55'0 0.0
2018-Jun-18 05:30N 52°23' E 004°55'0 0.0
2018-Jun-18 04:59N 52°23' E 004°55'0 0.1
2018-Jun-18 04:25N 52°23' E 004°55'0 0.1
2018-Jun-18 03:54N 52°23' E 004°55'0 0.0
2018-Jun-18 03:30N 52°23' E 004°55'0 0.0
2018-Jun-18 02:58N 52°23' E 004°55'0 0.0
2018-Jun-18 02:26N 52°23' E 004°55'0 0.0
2018-Jun-18 01:54N 52°23' E 004°55'0 0.0
2018-Jun-18 01:23N 52°23' E 004°55'0 0.0
2018-Jun-18 00:59N 52°23' E 004°55'0 0.0
2018-Jun-18 00:25N 52°23' E 004°55'0 0.0
2018-Jun-18 00:00N 52°23' E 004°55'0 0.3
2018-Jun-17 23:31N 52°23' E 004°55'3 5.3
2018-Jun-17 23:00N 52°25' E 004°52'4 7.2
2018-Jun-17 22:30N 52°26' E 004°46'4 7.1
2018-Jun-17 22:00N 52°27' E 004°41'3 6.1
2018-Jun-17 21:30N 52°28' E 004°36'1 2.2
2018-Jun-17 21:00N 52°28' E 004°34'510.0
2018-Jun-17 20:30N 52°29' E 004°26'3 6.0
2018-Jun-17 20:00N 52°28' E 004°21'4 8.5
2018-Jun-17 19:29N 52°29' E 004°14'6 8.9
2018-Jun-17 18:50N 52°28' E 004°05'3 9.3
2018-Jun-17 18:28N 52°27' E 003°59'510.6
2018-Jun-17 18:00N 52°27' E 003°51'1312.2
2018-Jun-17 16:54N 52°21' E 003°31'6913.1
2018-Jun-17 11:39N 51°31' E 002°13'210.9
2018-Jun-17 11:29N 51°30' E 002°12'610.7
2018-Jun-17 10:57N 51°26' E 002°06'7 9.5
2018-Jun-17 10:10N 51°27' E 001°54'213.2
2018-Jun-17 10:00N 51°28' E 001°51'611.6
2018-Jun-17 09:31N 51°29' E 001°42'612.4
2018-Jun-17 09:01N 51°29' E 001°32'713.1
2018-Jun-17 08:30N 51°29' E 001°22'713.8
2018-Jun-17 08:00N 51°29' E 001°11'713.4
2018-Jun-17 07:31N 51°29' E 000°60'612.9
2018-Jun-17 07:01N 51°29' E 000°49'714.1
2018-Jun-17 06:30N 51°30' E 000°38'713.2
2018-Jun-17 06:01N 51°29' E 000°28'510.6
2018-Jun-17 05:31N 51°28' E 000°20'611.1
2018-Jun-17 05:00N 51°29' E 000°11'10 0.7
2018-Jun-16 14:54N 51°30' W 000°05'  
Track history (hours):
 
Tides and Currents Weather Stations Pressure Air Temp Water Temp Dewpoint Dewpoint Depression Visibility Wind Speed Wind Dir Waves Ship Positions

Forever One

Last reported at 2018-Jun-25 10:28 UTC. Time now 2018-Jun-25 14:15 UTC.
Position N 54°06' E 009°20'.

Length 54 m; draft 3 m.

Type: Pleasure craft. MMSI: 319072200.

Date/timePositionNaut miles runAvg speedWind from/ knotsBaromVisibWave heightAir tempDewpointWater temp
2018-Jun-25 10:28N 54°06' E 009°20'5 9.1
2018-Jun-25 09:56N 54°02' E 009°18'4 8.7
2018-Jun-25 09:30N 53°58' E 009°16'4 8.8
2018-Jun-25 09:00N 53°55' E 009°11'2 3.1
2018-Jun-25 08:30N 53°54' E 009°09'0 0.0
2018-Jun-25 08:00N 53°54' E 009°09'1 2.1
2018-Jun-25 07:30N 53°53' E 009°10'510.6
2018-Jun-25 07:00N 53°51' E 009°19'714.1
2018-Jun-25 06:30N 53°45' E 009°24'714.4
2018-Jun-25 06:00N 53°39' E 009°31'714.7
2018-Jun-25 05:30N 53°34' E 009°40'815.3
2018-Jun-25 05:00N 53°33' E 009°53'3 5.8
2018-Jun-25 04:24N 53°33' E 009°59'0 0.0
2018-Jun-25 03:59N 53°33' E 009°59'0 0.0
2018-Jun-25 03:30N 53°33' E 009°59'0 0.0
2018-Jun-25 02:56N 53°33' E 009°59'0 0.0
2018-Jun-25 02:26N 53°33' E 009°59'0 0.0
2018-Jun-25 01:57N 53°33' E 009°59'0 0.0
2018-Jun-25 01:28N 53°33' E 009°59'0 0.0
2018-Jun-25 00:59N 53°33' E 009°59'0 0.0
2018-Jun-25 00:28N 53°33' E 009°59'0 0.0
2018-Jun-24 23:58N 53°33' E 009°59'0 0.0
2018-Jun-24 23:29N 53°33' E 009°59'0 0.0
2018-Jun-24 22:57N 53°33' E 009°59'0 0.0
2018-Jun-24 22:24N 53°33' E 009°59'0 0.0
2018-Jun-24 22:00N 53°33' E 009°59'0 0.0
2018-Jun-24 21:30N 53°33' E 009°59'0 0.0
2018-Jun-24 21:00N 53°33' E 009°59'0 0.0
2018-Jun-24 20:26N 53°33' E 009°59'0 0.0
2018-Jun-24 19:53N 53°33' E 009°59'0 0.0
2018-Jun-24 19:30N 53°33' E 009°59'0 0.0
2018-Jun-24 18:59N 53°33' E 009°59'0 0.0
2018-Jun-24 18:28N 53°33' E 009°59'0 0.0
2018-Jun-24 18:00N 53°33' E 009°59'0 0.0
2018-Jun-24 17:28N 53°33' E 009°59'0 0.0
2018-Jun-24 16:59N 53°33' E 009°59'0 0.0
2018-Jun-24 16:29N 53°33' E 009°59'0 0.0
2018-Jun-24 16:01N 53°33' E 009°59'0 0.0
2018-Jun-24 15:31N 53°33' E 009°59'0 0.0
2018-Jun-24 15:00N 53°33' E 009°59'0 0.0
2018-Jun-24 14:30N 53°33' E 009°59'0 0.0
2018-Jun-24 13:57N 53°33' E 009°59'0 0.0
2018-Jun-24 13:24N 53°33' E 009°59'0 0.0
2018-Jun-24 13:00N 53°33' E 009°59'0 0.0
2018-Jun-24 12:27N 53°33' E 009°59'0 0.0
2018-Jun-24 11:58N 53°33' E 009°59'0 0.0
2018-Jun-24 11:30N 53°33' E 009°59'0 0.0
2018-Jun-24 10:59N 53°33' E 009°59'0 0.0
2018-Jun-24 10:30N 53°33' E 009°59'0 0.0
2018-Jun-24 09:54N 53°33' E 009°59'0 0.0
2018-Jun-24 09:28N 53°33' E 009°59'0 0.0
2018-Jun-24 08:59N 53°33' E 009°59'0 0.0
2018-Jun-24 08:25N 53°33' E 009°59'0 0.0
2018-Jun-24 07:59N 53°33' E 009°59'0 0.0
2018-Jun-24 07:29N 53°33' E 009°59'0 0.0
2018-Jun-24 06:58N 53°33' E 009°59'0 0.0
2018-Jun-24 06:29N 53°33' E 009°59'0 0.0
2018-Jun-24 05:59N 53°33' E 009°59'0 0.0
2018-Jun-24 05:30N 53°33' E 009°59'0 0.0
2018-Jun-24 05:00N 53°33' E 009°59'0 0.0
2018-Jun-24 04:23N 53°33' E 009°59'0 0.0
2018-Jun-24 04:00N 53°33' E 009°59'0 0.0
2018-Jun-24 03:30N 53°33' E 009°59'0 0.0
2018-Jun-24 02:57N 53°33' E 009°59'0 0.0
2018-Jun-24 02:24N 53°33' E 009°59'0 0.0
2018-Jun-24 01:58N 53°33' E 009°59'0 0.0
2018-Jun-24 01:28N 53°33' E 009°59'0 0.0
2018-Jun-24 00:55N 53°33' E 009°59'0 0.0
2018-Jun-24 00:28N 53°33' E 009°59'0 0.0
2018-Jun-23 23:58N 53°33' E 009°59'0 0.0
2018-Jun-23 23:28N 53°33' E 009°59'0 0.0
2018-Jun-23 22:59N 53°33' E 009°59'0 0.0
2018-Jun-23 22:28N 53°33' E 009°59'0 0.0
2018-Jun-23 21:53N 53°33' E 009°59'0 0.0
2018-Jun-23 21:29N 53°33' E 009°59'0 0.0
2018-Jun-23 21:00N 53°33' E 009°59'0 0.0
2018-Jun-23 20:28N 53°33' E 009°59'0 0.0
2018-Jun-23 20:00N 53°33' E 009°59'0 0.0
2018-Jun-23 19:25N 53°33' E 009°59'0 0.0
2018-Jun-23 18:59N 53°33' E 009°59'0 0.0
2018-Jun-23 18:28N 53°33' E 009°59'0 0.0
2018-Jun-23 17:55N 53°33' E 009°59'0 0.0
2018-Jun-23 17:24N 53°33' E 009°59'0 0.0
2018-Jun-23 17:00N 53°33' E 009°59'0 0.0
2018-Jun-23 16:28N 53°33' E 009°59'0 0.0
2018-Jun-23 16:00N 53°33' E 009°59'0 0.0
2018-Jun-23 15:27N 53°33' E 009°59'0 0.0
2018-Jun-23 14:58N 53°33' E 009°59'0 0.0
2018-Jun-23 14:28N 53°33' E 009°59'0 0.0
2018-Jun-23 13:56N 53°33' E 009°59'0 0.0
2018-Jun-23 13:24N 53°33' E 009°59'0 0.0
2018-Jun-23 12:58N 53°33' E 009°59'0 0.0
2018-Jun-23 12:28N 53°33' E 009°59'0 0.0
2018-Jun-23 11:54N 53°33' E 009°59'0 0.0
2018-Jun-23 11:28N 53°33' E 009°59'0 0.0
2018-Jun-23 11:00N 53°33' E 009°59'0 0.0
2018-Jun-23 10:28N 53°33' E 009°59'0 0.0
2018-Jun-23 09:56N 53°33' E 009°59'0 0.0
2018-Jun-23 09:23N 53°33' E 009°59'0 0.0
2018-Jun-23 08:59N 53°33' E 009°59'0 0.0
2018-Jun-23 08:27N 53°33' E 009°59'0 0.0
2018-Jun-23 07:53N 53°33' E 009°59'0 0.0
2018-Jun-23 07:29N 53°33' E 009°59'0 0.0
2018-Jun-23 06:58N 53°33' E 009°59'0 0.0
2018-Jun-23 06:26N 53°33' E 009°59'0 0.0
2018-Jun-23 06:00N 53°33' E 009°59'0 0.0
2018-Jun-23 05:29N 53°33' E 009°59'0 0.0
2018-Jun-23 05:00N 53°33' E 009°59'0 0.0
2018-Jun-23 04:27N 53°33' E 009°59'0 0.0
2018-Jun-23 03:59N 53°33' E 009°59'0 0.0
2018-Jun-23 03:30N 53°33' E 009°59'0 0.0
2018-Jun-23 03:00N 53°33' E 009°59'0 0.0
2018-Jun-23 02:28N 53°33' E 009°59'0 0.0
2018-Jun-23 01:54N 53°33' E 009°59'0 0.0
2018-Jun-23 01:27N 53°33' E 009°59'0 0.0
2018-Jun-23 00:58N 53°33' E 009°59'0 0.0
2018-Jun-23 00:29N 53°33' E 009°59'0 0.0
2018-Jun-22 23:59N 53°33' E 009°59'0 0.0
2018-Jun-22 23:29N 53°33' E 009°59'0 0.0
2018-Jun-22 22:59N 53°33' E 009°59'0 0.0
2018-Jun-22 22:29N 53°33' E 009°59'0 0.0
2018-Jun-22 21:59N 53°33' E 009°59'0 0.0
2018-Jun-22 21:27N 53°33' E 009°59'0 0.0
2018-Jun-22 20:59N 53°33' E 009°59'0 0.0
2018-Jun-22 20:26N 53°33' E 009°59'0 0.0
2018-Jun-22 19:56N 53°33' E 009°59'0 0.0
2018-Jun-22 19:30N 53°33' E 009°59'0 0.0
2018-Jun-22 19:00N 53°33' E 009°59'0 0.0
2018-Jun-22 18:28N 53°33' E 009°59'0 0.0
2018-Jun-22 17:54N 53°33' E 009°59'0 0.0
2018-Jun-22 17:24N 53°33' E 009°59'0 0.0
2018-Jun-22 16:58N 53°33' E 009°59'0 0.0
2018-Jun-22 16:25N 53°33' E 009°59'0 0.0
2018-Jun-22 15:55N 53°33' E 009°59'0 0.0
2018-Jun-22 15:30N 53°33' E 009°59'0 0.0
2018-Jun-22 14:59N 53°33' E 009°59'0 0.0
2018-Jun-22 14:28N 53°33' E 009°59'0 0.0
2018-Jun-22 13:56N 53°33' E 009°59'0 0.0
2018-Jun-22 13:29N 53°33' E 009°59'0 0.0
2018-Jun-22 13:00N 53°33' E 009°59'0 0.0
2018-Jun-22 12:27N 53°33' E 009°59'0 0.0
2018-Jun-22 11:55N 53°33' E 009°59'0 0.0
2018-Jun-22 11:24N 53°33' E 009°59'0 0.0
2018-Jun-22 10:59N 53°33' E 009°59'0 0.0
2018-Jun-22 10:26N 53°33' E 009°59'0 0.0
2018-Jun-22 09:53N 53°33' E 009°59'0 0.0
2018-Jun-22 09:30N 53°33' E 009°59'0 0.0
2018-Jun-22 08:59N 53°33' E 009°59'0 0.0
2018-Jun-22 08:25N 53°33' E 009°59'0 0.0
2018-Jun-22 07:56N 53°33' E 009°59'0 0.0
2018-Jun-22 07:29N 53°33' E 009°59'0 0.0
2018-Jun-22 06:58N 53°33' E 009°59'0 0.0
2018-Jun-22 06:26N 53°33' E 009°59'0 0.0
2018-Jun-22 05:54N 53°33' E 009°59'0 0.0
2018-Jun-22 05:30N 53°33' E 009°59'0 0.0
2018-Jun-22 04:59N 53°33' E 009°59'0 0.0
2018-Jun-22 04:25N 53°33' E 009°59'0 0.0
2018-Jun-22 03:59N 53°33' E 009°59'0 0.0
2018-Jun-22 03:29N 53°33' E 009°59'0 0.0
2018-Jun-22 03:00N 53°33' E 009°59'0 0.0
2018-Jun-22 02:26N 53°33' E 009°59'0 0.0
2018-Jun-22 02:00N 53°33' E 009°59'0 0.0
2018-Jun-22 01:26N 53°33' E 009°59'0 0.0
2018-Jun-22 00:54N 53°33' E 009°59'0 0.0
2018-Jun-22 00:30N 53°33' E 009°59'0 0.0
2018-Jun-21 23:58N 53°33' E 009°59'0 0.0
2018-Jun-21 23:30N 53°33' E 009°59'0 0.0
2018-Jun-21 23:00N 53°33' E 009°59'0 0.0
2018-Jun-21 22:29N 53°33' E 009°59'0 0.0
2018-Jun-21 21:57N 53°33' E 009°59'0 0.0
2018-Jun-21 21:25N 53°33' E 009°59'0 0.0
2018-Jun-21 21:00N 53°33' E 009°59'3 6.4
2018-Jun-21 20:30N 53°32' E 009°53'714.6
2018-Jun-21 20:00N 53°34' E 009°41'815.4
2018-Jun-21 19:30N 53°39' E 009°31'815.9
2018-Jun-21 19:00N 53°46' E 009°24'816.3
2018-Jun-21 18:30N 53°52' E 009°16'816.5
2018-Jun-21 18:01N 53°52' E 009°02'916.2
2018-Jun-21 17:27N 53°51' E 008°47'12514.5
2018-Jun-21 08:48N 53°32' E 005°18'413.8
2018-Jun-21 08:29N 53°31' E 005°11'613.6
2018-Jun-21 08:00N 53°28' E 005°01'713.5
2018-Jun-21 07:28N 53°26' E 004°49'5611.2
2018-Jun-21 02:28N 52°31' E 004°26'511.6
2018-Jun-21 02:00N 52°28' E 004°33'1 2.7
2018-Jun-21 01:30N 52°28' E 004°36'3 5.5
2018-Jun-21 01:01N 52°28' E 004°40'5 9.6
2018-Jun-21 00:30N 52°26' E 004°47'4 9.0
2018-Jun-21 00:01N 52°23' E 004°54'1 2.0
2018-Jun-20 23:30N 52°23' E 004°55'0 0.4
2018-Jun-20 22:55N 52°22' E 004°55'0 0.0
2018-Jun-20 22:26N 52°22' E 004°55'0 0.0
2018-Jun-20 21:58N 52°22' E 004°55'0 0.0
2018-Jun-20 21:30N 52°22' E 004°55'0 0.0
2018-Jun-20 20:47N 52°22' E 004°55'0 0.0
2018-Jun-20 20:23N 52°22' E 004°55'0 0.0
2018-Jun-20 19:58N 52°22' E 004°55'0 0.0
2018-Jun-20 19:26N 52°22' E 004°55'0 0.0
2018-Jun-20 19:00N 52°22' E 004°55'0 0.0
2018-Jun-20 18:20N 52°22' E 004°55'0 0.0
2018-Jun-20 17:58N 52°22' E 004°55'0 0.0
2018-Jun-20 17:26N 52°22' E 004°55'0 0.0
2018-Jun-20 17:00N 52°22' E 004°55'0 0.0
2018-Jun-20 16:30N 52°22' E 004°55'0 0.0
2018-Jun-20 15:58N 52°22' E 004°55'0 0.0
2018-Jun-20 15:23N 52°22' E 004°55'0 0.0
2018-Jun-20 14:58N 52°22' E 004°55'0 0.0
2018-Jun-20 14:28N 52°22' E 004°55'0 0.0
2018-Jun-20 13:58N 52°22' E 004°55'0 0.0
2018-Jun-20 13:27N 52°22' E 004°55'0 0.0
2018-Jun-20 12:55N 52°22' E 004°55'0 0.0
2018-Jun-20 12:23N 52°22' E 004°55'0 0.0
2018-Jun-20 11:58N 52°22' E 004°55'0 0.0
2018-Jun-20 11:27N 52°22' E 004°55'0 0.0
2018-Jun-20 10:56N 52°22' E 004°55'0 0.0
2018-Jun-20 10:29N 52°22' E 004°55'0 0.0
2018-Jun-20 09:57N 52°22' E 004°55'0 0.0
2018-Jun-20 09:25N 52°22' E 004°55'0 0.0
2018-Jun-20 08:57N 52°22' E 004°55'0 0.0
2018-Jun-20 08:30N 52°22' E 004°55'0 0.0
2018-Jun-20 07:59N 52°22' E 004°55'0 0.0
2018-Jun-20 07:27N 52°22' E 004°55'0 0.0
2018-Jun-20 07:00N 52°22' E 004°55'0 0.0
2018-Jun-20 06:28N 52°22' E 004°55'0 0.0
2018-Jun-20 05:58N 52°22' E 004°55'0 0.0
2018-Jun-20 05:26N 52°22' E 004°55'0 0.0
2018-Jun-20 05:00N 52°22' E 004°55'0 0.0
2018-Jun-20 04:28N 52°22' E 004°55'0 0.0
2018-Jun-20 03:54N 52°22' E 004°55'0 0.0
2018-Jun-20 03:24N 52°22' E 004°55'0 0.0
2018-Jun-20 03:00N 52°22' E 004°55'0 0.0
2018-Jun-20 02:28N 52°22' E 004°55'0 0.0
2018-Jun-20 01:58N 52°22' E 004°55'0 0.0
2018-Jun-20 01:26N 52°22' E 004°55'0 0.0
2018-Jun-20 00:54N 52°22' E 004°55'0 0.0
2018-Jun-20 00:30N 52°22' E 004°55'0 0.0
2018-Jun-20 00:00N 52°22' E 004°55'0 0.0
2018-Jun-19 23:25N 52°22' E 004°55'0 0.0
2018-Jun-19 22:58N 52°22' E 004°55'0 0.0
2018-Jun-19 22:20N 52°22' E 004°55'0 0.0
2018-Jun-19 21:58N 52°22' E 004°55'0 0.0
2018-Jun-19 21:26N 52°22' E 004°55'0 0.0
2018-Jun-19 20:55N 52°22' E 004°55'0 0.0
2018-Jun-19 20:23N 52°22' E 004°55'0 0.0
2018-Jun-19 19:59N 52°22' E 004°55'0 0.0
2018-Jun-19 19:25N 52°22' E 004°55'0 0.0
2018-Jun-19 18:55N 52°22' E 004°55'0 0.0
2018-Jun-19 18:28N 52°22' E 004°55'0 0.0
2018-Jun-19 18:00N 52°22' E 004°55'0 0.0
2018-Jun-19 17:16N 52°22' E 004°55'0 0.0
2018-Jun-19 17:00N 52°22' E 004°55'0 0.0
2018-Jun-19 16:28N 52°22' E 004°55'0 0.0
2018-Jun-19 15:59N 52°22' E 004°55'0 0.0
2018-Jun-19 15:27N 52°22' E 004°55'0 0.0
2018-Jun-19 14:55N 52°22' E 004°55'0 0.0
2018-Jun-19 14:29N 52°22' E 004°55'0 0.0
2018-Jun-19 13:58N 52°22' E 004°55'0 0.0
2018-Jun-19 13:24N 52°22' E 004°55'0 0.0
2018-Jun-19 13:00N 52°22' E 004°55'0 0.0
2018-Jun-19 12:29N 52°22' E 004°55'0 0.0
2018-Jun-19 11:49N 52°22' E 004°55'0 0.0
2018-Jun-19 11:25N 52°22' E 004°55'0 0.0
2018-Jun-19 10:52N 52°22' E 004°55'0 0.0
2018-Jun-19 10:29N 52°22' E 004°55'0 0.0
2018-Jun-19 09:57N 52°22' E 004°55'0 0.0
2018-Jun-19 09:23N 52°22' E 004°55'0 0.0
2018-Jun-19 08:59N 52°22' E 004°55'0 0.0
2018-Jun-19 08:20N 52°22' E 004°55'0 0.0
2018-Jun-19 07:58N 52°22' E 004°55'0 0.0
2018-Jun-19 07:15N 52°22' E 004°55'0 0.0
2018-Jun-19 06:59N 52°22' E 004°55'0 0.0
2018-Jun-19 06:29N 52°22' E 004°55'0 0.0
2018-Jun-19 05:57N 52°22' E 004°55'0 0.0
2018-Jun-19 05:25N 52°22' E 004°55'0 0.0
2018-Jun-19 04:54N 52°22' E 004°55'0 0.0
2018-Jun-19 04:28N 52°22' E 004°55'0 0.0
2018-Jun-19 03:57N 52°22' E 004°55'0 0.0
2018-Jun-19 03:28N 52°22' E 004°55'0 0.0
2018-Jun-19 02:54N 52°22' E 004°55'0 0.0
2018-Jun-19 02:30N 52°22' E 004°55'0 0.0
2018-Jun-19 01:59N 52°22' E 004°55'0 0.0
2018-Jun-19 01:25N 52°22' E 004°55'0 0.0
2018-Jun-19 00:54N 52°22' E 004°55'0 0.0
2018-Jun-19 00:27N 52°22' E 004°55'0 0.7
2018-Jun-18 23:56N 52°23' E 004°55'0 0.2
2018-Jun-18 23:30N 52°23' E 004°55'0 0.2
2018-Jun-18 22:58N 52°23' E 004°55'0 0.0
2018-Jun-18 22:23N 52°23' E 004°55'0 0.0
2018-Jun-18 21:59N 52°23' E 004°55'0 0.0
2018-Jun-18 21:29N 52°23' E 004°55'0 0.0
2018-Jun-18 20:54N 52°23' E 004°55'0 0.0
2018-Jun-18 20:24N 52°23' E 004°55'0 0.0
2018-Jun-18 19:59N 52°23' E 004°55'0 0.0
2018-Jun-18 19:30N 52°23' E 004°55'0 0.0
2018-Jun-18 18:55N 52°23' E 004°55'0 0.0
2018-Jun-18 18:24N 52°23' E 004°55'0 0.0
2018-Jun-18 17:53N 52°23' E 004°55'0 0.0
2018-Jun-18 17:30N 52°23' E 004°55'0 0.0
2018-Jun-18 16:58N 52°23' E 004°55'0 0.0
2018-Jun-18 16:26N 52°23' E 004°55'0 0.0
2018-Jun-18 15:59N 52°23' E 004°55'0 0.0
2018-Jun-18 15:28N 52°23' E 004°55'0 0.0
2018-Jun-18 14:56N 52°23' E 004°55'0 0.0
2018-Jun-18 14:25N 52°23' E 004°55'0 0.0
2018-Jun-18 13:57N 52°23' E 004°55'0 0.0
2018-Jun-18 13:30N 52°23' E 004°55'0 0.0
2018-Jun-18 12:58N 52°23' E 004°55'0 0.0
2018-Jun-18 12:26N 52°23' E 004°55'0 0.0
2018-Jun-18 11:59N 52°23' E 004°55'0 0.0
2018-Jun-18 11:28N 52°23' E 004°55'0 0.0
2018-Jun-18 10:56N 52°23' E 004°55'0 0.0
2018-Jun-18 10:24N 52°23' E 004°55'0 0.0
2018-Jun-18 10:00N 52°23' E 004°55'0 0.0
2018-Jun-18 09:28N 52°23' E 004°55'0 0.0
2018-Jun-18 08:57N 52°23' E 004°55'0 0.0
2018-Jun-18 08:29N 52°23' E 004°55'0 0.0
2018-Jun-18 07:54N 52°23' E 004°55'0 0.0
2018-Jun-18 07:30N 52°23' E 004°55'0 0.0
2018-Jun-18 06:56N 52°23' E 004°55'0 0.0
2018-Jun-18 06:25N 52°23' E 004°55'0 0.0
2018-Jun-18 05:53N 52°23' E 004°55'0 0.0
2018-Jun-18 05:30N 52°23' E 004°55'0 0.0
2018-Jun-18 04:59N 52°23' E 004°55'0 0.1
2018-Jun-18 04:25N 52°23' E 004°55'0 0.1
2018-Jun-18 03:54N 52°23' E 004°55'0 0.0
2018-Jun-18 03:30N 52°23' E 004°55'0 0.0
2018-Jun-18 02:58N 52°23' E 004°55'0 0.0
2018-Jun-18 02:26N 52°23' E 004°55'0 0.0
2018-Jun-18 01:54N 52°23' E 004°55'0 0.0
2018-Jun-18 01:23N 52°23' E 004°55'0 0.0
2018-Jun-18 00:59N 52°23' E 004°55'0 0.0
2018-Jun-18 00:25N 52°23' E 004°55'0 0.0
2018-Jun-18 00:00N 52°23' E 004°55'0 0.3
2018-Jun-17 23:31N 52°23' E 004°55'3 5.3
2018-Jun-17 23:00N 52°25' E 004°52'4 7.2
2018-Jun-17 22:30N 52°26' E 004°46'4 7.1
2018-Jun-17 22:00N 52°27' E 004°41'3 6.1
2018-Jun-17 21:30N 52°28' E 004°36'1 2.2
2018-Jun-17 21:00N 52°28' E 004°34'510.0
2018-Jun-17 20:30N 52°29' E 004°26'3 6.0
2018-Jun-17 20:00N 52°28' E 004°21'4 8.5
2018-Jun-17 19:29N 52°29' E 004°14'6 8.9
2018-Jun-17 18:50N 52°28' E 004°05'3 9.3
2018-Jun-17 18:28N 52°27' E 003°59'510.6
2018-Jun-17 18:00N 52°27' E 003°51'1312.2
2018-Jun-17 16:54N 52°21' E 003°31'6913.1
2018-Jun-17 11:39N 51°31' E 002°13'210.9
2018-Jun-17 11:29N 51°30' E 002°12'610.7
2018-Jun-17 10:57N 51°26' E 002°06'7 9.5
2018-Jun-17 10:10N 51°27' E 001°54'213.2
2018-Jun-17 10:00N 51°28' E 001°51'611.6
2018-Jun-17 09:31N 51°29' E 001°42'612.4
2018-Jun-17 09:01N 51°29' E 001°32'713.1
2018-Jun-17 08:30N 51°29' E 001°22'713.8
2018-Jun-17 08:00N 51°29' E 001°11'713.4
2018-Jun-17 07:31N 51°29' E 000°60'612.9
2018-Jun-17 07:01N 51°29' E 000°49'714.1
2018-Jun-17 06:30N 51°30' E 000°38'713.2
2018-Jun-17 06:01N 51°29' E 000°28'510.6
2018-Jun-17 05:31N 51°28' E 000°20'611.1
2018-Jun-17 05:00N 51°29' E 000°11'10 0.7
2018-Jun-16 14:54N 51°30' W 000°05'  

Dump ship's entire track history